sensor_id;sensor_type;location;lat;lon;timestamp;P1;durP1;ratioP1;P2;durP2;ratioP2
9124;SDS011;4597;48.730;9.114;2023-02-28T00:00:47;3.63;;;2.90;;
9124;SDS011;4597;48.730;9.114;2023-02-28T00:03:13;3.07;;;2.87;;
9124;SDS011;4597;48.730;9.114;2023-02-28T00:05:38;3.37;;;2.53;;
9124;SDS011;4597;48.730;9.114;2023-02-28T00:08:04;4.00;;;2.90;;
9124;SDS011;4597;48.730;9.114;2023-02-28T00:10:30;2.87;;;2.60;;
9124;SDS011;4597;48.730;9.114;2023-02-28T00:12:59;3.03;;;2.83;;
9124;SDS011;4597;48.730;9.114;2023-02-28T00:15:30;3.37;;;2.87;;
9124;SDS011;4597;48.730;9.114;2023-02-28T00:17:56;3.53;;;3.13;;
9124;SDS011;4597;48.730;9.114;2023-02-28T00:20:22;4.40;;;3.20;;
9124;SDS011;4597;48.730;9.114;2023-02-28T00:22:49;3.50;;;3.17;;
9124;SDS011;4597;48.730;9.114;2023-02-28T00:25:24;3.27;;;3.07;;
9124;SDS011;4597;48.730;9.114;2023-02-28T00:27:50;4.17;;;2.90;;
9124;SDS011;4597;48.730;9.114;2023-02-28T00:30:18;3.10;;;2.80;;
9124;SDS011;4597;48.730;9.114;2023-02-28T00:32:47;3.23;;;2.93;;
9124;SDS011;4597;48.730;9.114;2023-02-28T00:35:13;3.13;;;2.83;;
9124;SDS011;4597;48.730;9.114;2023-02-28T00:37:39;3.20;;;3.00;;
9124;SDS011;4597;48.730;9.114;2023-02-28T00:40:05;3.20;;;3.00;;
9124;SDS011;4597;48.730;9.114;2023-02-28T00:42:32;3.63;;;3.20;;
9124;SDS011;4597;48.730;9.114;2023-02-28T00:44:58;3.13;;;2.87;;
9124;SDS011;4597;48.730;9.114;2023-02-28T00:47:23;3.83;;;3.10;;
9124;SDS011;4597;48.730;9.114;2023-02-28T00:49:49;4.40;;;3.23;;
9124;SDS011;4597;48.730;9.114;2023-02-28T00:52:14;2.97;;;2.77;;
9124;SDS011;4597;48.730;9.114;2023-02-28T00:54:40;3.00;;;2.67;;
9124;SDS011;4597;48.730;9.114;2023-02-28T00:57:05;3.80;;;3.40;;
9124;SDS011;4597;48.730;9.114;2023-02-28T00:59:31;3.37;;;3.07;;
9124;SDS011;4597;48.730;9.114;2023-02-28T01:01:56;3.37;;;3.07;;
9124;SDS011;4597;48.730;9.114;2023-02-28T01:04:22;2.93;;;2.70;;
9124;SDS011;4597;48.730;9.114;2023-02-28T01:06:47;3.03;;;2.83;;
9124;SDS011;4597;48.730;9.114;2023-02-28T01:09:13;2.93;;;2.73;;
9124;SDS011;4597;48.730;9.114;2023-02-28T01:11:39;3.50;;;3.20;;
9124;SDS011;4597;48.730;9.114;2023-02-28T01:14:06;3.93;;;3.23;;
9124;SDS011;4597;48.730;9.114;2023-02-28T01:16:32;3.43;;;2.97;;
9124;SDS011;4597;48.730;9.114;2023-02-28T01:18:57;2.93;;;2.73;;
9124;SDS011;4597;48.730;9.114;2023-02-28T01:21:23;3.17;;;2.87;;
9124;SDS011;4597;48.730;9.114;2023-02-28T01:23:49;3.10;;;2.63;;
9124;SDS011;4597;48.730;9.114;2023-02-28T01:26:17;3.87;;;3.57;;
9124;SDS011;4597;48.730;9.114;2023-02-28T01:28:45;2.67;;;2.47;;
9124;SDS011;4597;48.730;9.114;2023-02-28T01:31:11;3.73;;;3.33;;
9124;SDS011;4597;48.730;9.114;2023-02-28T01:33:37;3.90;;;3.17;;
9124;SDS011;4597;48.730;9.114;2023-02-28T01:36:07;3.37;;;3.00;;
9124;SDS011;4597;48.730;9.114;2023-02-28T01:38:35;4.20;;;3.00;;
9124;SDS011;4597;48.730;9.114;2023-02-28T01:41:01;3.60;;;2.70;;
9124;SDS011;4597;48.730;9.114;2023-02-28T01:43:28;2.80;;;2.63;;
9124;SDS011;4597;48.730;9.114;2023-02-28T01:45:56;3.10;;;2.90;;
9124;SDS011;4597;48.730;9.114;2023-02-28T01:48:27;3.60;;;2.90;;
9124;SDS011;4597;48.730;9.114;2023-02-28T01:50:56;3.83;;;3.20;;
9124;SDS011;4597;48.730;9.114;2023-02-28T01:53:29;3.43;;;3.13;;
9124;SDS011;4597;48.730;9.114;2023-02-28T01:55:58;3.50;;;3.20;;
9124;SDS011;4597;48.730;9.114;2023-02-28T01:58:24;3.20;;;3.00;;
9124;SDS011;4597;48.730;9.114;2023-02-28T02:00:50;3.20;;;2.90;;
9124;SDS011;4597;48.730;9.114;2023-02-28T02:03:17;2.97;;;2.67;;
9124;SDS011;4597;48.730;9.114;2023-02-28T02:05:45;3.07;;;2.80;;
9124;SDS011;4597;48.730;9.114;2023-02-28T02:08:13;4.60;;;3.17;;
9124;SDS011;4597;48.730;9.114;2023-02-28T02:15:59;3.47;;;3.17;;
9124;SDS011;4597;48.730;9.114;2023-02-28T02:21:26;3.47;;;3.27;;
9124;SDS011;4597;48.730;9.114;2023-02-28T02:32:45;3.57;;;3.27;;
9124;SDS011;4597;48.730;9.114;2023-02-28T02:35:31;3.57;;;3.10;;
9124;SDS011;4597;48.730;9.114;2023-02-28T02:38:19;3.90;;;3.37;;
9124;SDS011;4597;48.730;9.114;2023-02-28T02:43:44;3.97;;;3.63;;
9124;SDS011;4597;48.730;9.114;2023-02-28T02:46:36;3.73;;;3.30;;
9124;SDS011;4597;48.730;9.114;2023-02-28T02:49:06;3.63;;;3.33;;
9124;SDS011;4597;48.730;9.114;2023-02-28T02:51:51;3.77;;;3.47;;
9124;SDS011;4597;48.730;9.114;2023-02-28T02:54:22;3.33;;;3.13;;
9124;SDS011;4597;48.730;9.114;2023-02-28T02:56:53;3.53;;;3.23;;
9124;SDS011;4597;48.730;9.114;2023-02-28T02:59:22;4.00;;;3.23;;
9124;SDS011;4597;48.730;9.114;2023-02-28T03:01:53;3.80;;;3.50;;
9124;SDS011;4597;48.730;9.114;2023-02-28T03:04:23;4.17;;;3.40;;
9124;SDS011;4597;48.730;9.114;2023-02-28T03:06:51;3.70;;;3.40;;
9124;SDS011;4597;48.730;9.114;2023-02-28T03:09:20;3.87;;;3.60;;
9124;SDS011;4597;48.730;9.114;2023-02-28T03:11:47;3.53;;;3.23;;
9124;SDS011;4597;48.730;9.114;2023-02-28T03:17:36;3.53;;;3.23;;
9124;SDS011;4597;48.730;9.114;2023-02-28T03:23:16;3.77;;;3.47;;
9124;SDS011;4597;48.730;9.114;2023-02-28T03:25:54;3.57;;;3.27;;
9124;SDS011;4597;48.730;9.114;2023-02-28T03:31:31;4.53;;;3.70;;
9124;SDS011;4597;48.730;9.114;2023-02-28T03:34:02;3.93;;;3.63;;
9124;SDS011;4597;48.730;9.114;2023-02-28T03:36:53;3.50;;;3.20;;
9124;SDS011;4597;48.730;9.114;2023-02-28T03:40:04;4.33;;;3.93;;
9124;SDS011;4597;48.730;9.114;2023-02-28T03:42:21;4.13;;;3.77;;
9124;SDS011;4597;48.730;9.114;2023-02-28T03:44:52;4.20;;;3.80;;
9124;SDS011;4597;48.730;9.114;2023-02-28T03:47:31;3.70;;;3.40;;
9124;SDS011;4597;48.730;9.114;2023-02-28T03:50:06;3.60;;;3.37;;
9124;SDS011;4597;48.730;9.114;2023-02-28T03:52:37;3.97;;;3.67;;
9124;SDS011;4597;48.730;9.114;2023-02-28T03:55:12;4.13;;;3.57;;
9124;SDS011;4597;48.730;9.114;2023-02-28T03:57:59;4.73;;;3.63;;
9124;SDS011;4597;48.730;9.114;2023-02-28T04:00:34;4.10;;;3.70;;
9124;SDS011;4597;48.730;9.114;2023-02-28T04:03:03;5.07;;;4.13;;
9124;SDS011;4597;48.730;9.114;2023-02-28T04:05:29;3.80;;;3.43;;
9124;SDS011;4597;48.730;9.114;2023-02-28T04:08:03;5.73;;;3.97;;
9124;SDS011;4597;48.730;9.114;2023-02-28T04:10:32;4.40;;;4.00;;
9124;SDS011;4597;48.730;9.114;2023-02-28T04:12:57;4.37;;;3.47;;
9124;SDS011;4597;48.730;9.114;2023-02-28T04:15:23;6.33;;;3.93;;
9124;SDS011;4597;48.730;9.114;2023-02-28T04:17:49;4.33;;;3.67;;
9124;SDS011;4597;48.730;9.114;2023-02-28T04:20:15;4.10;;;3.67;;
9124;SDS011;4597;48.730;9.114;2023-02-28T04:22:40;4.83;;;3.83;;
9124;SDS011;4597;48.730;9.114;2023-02-28T04:25:06;4.13;;;3.73;;
9124;SDS011;4597;48.730;9.114;2023-02-28T04:27:32;4.70;;;4.20;;
9124;SDS011;4597;48.730;9.114;2023-02-28T04:29:58;4.40;;;4.00;;
9124;SDS011;4597;48.730;9.114;2023-02-28T04:32:24;4.70;;;4.30;;
9124;SDS011;4597;48.730;9.114;2023-02-28T04:34:49;4.20;;;3.80;;
9124;SDS011;4597;48.730;9.114;2023-02-28T04:37:15;4.60;;;4.20;;
9124;SDS011;4597;48.730;9.114;2023-02-28T04:39:40;4.17;;;3.77;;
9124;SDS011;4597;48.730;9.114;2023-02-28T04:42:07;4.87;;;4.30;;
9124;SDS011;4597;48.730;9.114;2023-02-28T04:44:33;4.90;;;4.27;;
9124;SDS011;4597;48.730;9.114;2023-02-28T04:46:58;4.87;;;4.07;;
9124;SDS011;4597;48.730;9.114;2023-02-28T04:49:24;4.60;;;3.80;;
9124;SDS011;4597;48.730;9.114;2023-02-28T04:51:49;4.90;;;4.40;;
9124;SDS011;4597;48.730;9.114;2023-02-28T04:54:15;5.40;;;4.87;;
9124;SDS011;4597;48.730;9.114;2023-02-28T04:56:42;4.67;;;4.20;;
9124;SDS011;4597;48.730;9.114;2023-02-28T04:59:08;4.17;;;3.83;;
9124;SDS011;4597;48.730;9.114;2023-02-28T05:01:33;4.67;;;3.87;;
9124;SDS011;4597;48.730;9.114;2023-02-28T05:04:00;5.00;;;4.50;;
9124;SDS011;4597;48.730;9.114;2023-02-28T05:06:28;4.40;;;4.00;;
9124;SDS011;4597;48.730;9.114;2023-02-28T05:08:55;4.53;;;4.10;;
9124;SDS011;4597;48.730;9.114;2023-02-28T05:11:22;4.80;;;4.00;;
9124;SDS011;4597;48.730;9.114;2023-02-28T05:13:54;5.07;;;4.40;;
9124;SDS011;4597;48.730;9.114;2023-02-28T05:16:20;4.60;;;4.20;;
9124;SDS011;4597;48.730;9.114;2023-02-28T05:18:46;4.67;;;4.13;;
9124;SDS011;4597;48.730;9.114;2023-02-28T05:23:49;4.30;;;3.90;;
9124;SDS011;4597;48.730;9.114;2023-02-28T05:26:14;4.97;;;4.07;;
9124;SDS011;4597;48.730;9.114;2023-02-28T05:28:40;6.10;;;4.70;;
9124;SDS011;4597;48.730;9.114;2023-02-28T05:31:05;4.70;;;4.30;;
9124;SDS011;4597;48.730;9.114;2023-02-28T05:33:31;5.17;;;4.40;;
9124;SDS011;4597;48.730;9.114;2023-02-28T05:35:56;4.97;;;4.53;;
9124;SDS011;4597;48.730;9.114;2023-02-28T05:38:22;5.67;;;4.17;;
9124;SDS011;4597;48.730;9.114;2023-02-28T05:40:47;4.60;;;4.20;;
9124;SDS011;4597;48.730;9.114;2023-02-28T05:43:13;5.67;;;4.77;;
9124;SDS011;4597;48.730;9.114;2023-02-28T05:45:38;5.73;;;4.40;;
9124;SDS011;4597;48.730;9.114;2023-02-28T05:48:04;4.83;;;4.20;;
9124;SDS011;4597;48.730;9.114;2023-02-28T05:50:29;6.47;;;4.90;;
9124;SDS011;4597;48.730;9.114;2023-02-28T05:52:55;4.83;;;4.37;;
9124;SDS011;4597;48.730;9.114;2023-02-28T05:55:20;6.53;;;4.80;;
9124;SDS011;4597;48.730;9.114;2023-02-28T05:57:46;5.90;;;4.40;;
9124;SDS011;4597;48.730;9.114;2023-02-28T06:00:12;5.30;;;4.27;;
9124;SDS011;4597;48.730;9.114;2023-02-28T06:02:39;5.87;;;4.47;;
9124;SDS011;4597;48.730;9.114;2023-02-28T06:05:06;5.63;;;4.67;;
9124;SDS011;4597;48.730;9.114;2023-02-28T06:07:36;4.90;;;4.17;;
9124;SDS011;4597;48.730;9.114;2023-02-28T06:10:01;5.50;;;4.60;;
9124;SDS011;4597;48.730;9.114;2023-02-28T06:12:27;4.90;;;4.50;;
9124;SDS011;4597;48.730;9.114;2023-02-28T06:14:52;4.93;;;4.53;;
9124;SDS011;4597;48.730;9.114;2023-02-28T06:17:18;6.80;;;5.20;;
9124;SDS011;4597;48.730;9.114;2023-02-28T06:19:43;5.27;;;4.60;;
9124;SDS011;4597;48.730;9.114;2023-02-28T06:22:09;4.63;;;4.23;;
9124;SDS011;4597;48.730;9.114;2023-02-28T06:24:34;4.40;;;3.90;;
9124;SDS011;4597;48.730;9.114;2023-02-28T06:27:00;7.57;;;4.97;;
9124;SDS011;4597;48.730;9.114;2023-02-28T06:29:30;5.30;;;4.80;;
9124;SDS011;4597;48.730;9.114;2023-02-28T06:31:56;4.90;;;4.40;;
9124;SDS011;4597;48.730;9.114;2023-02-28T06:34:22;5.17;;;4.63;;
9124;SDS011;4597;48.730;9.114;2023-02-28T06:36:49;4.33;;;3.93;;
9124;SDS011;4597;48.730;9.114;2023-02-28T06:39:16;5.77;;;5.07;;
9124;SDS011;4597;48.730;9.114;2023-02-28T06:41:41;5.30;;;4.47;;
9124;SDS011;4597;48.730;9.114;2023-02-28T06:44:12;5.20;;;4.70;;
9124;SDS011;4597;48.730;9.114;2023-02-28T06:46:41;4.63;;;4.23;;
9124;SDS011;4597;48.730;9.114;2023-02-28T06:49:08;7.27;;;4.80;;
9124;SDS011;4597;48.730;9.114;2023-02-28T06:51:35;4.63;;;4.03;;
9124;SDS011;4597;48.730;9.114;2023-02-28T06:54:02;6.27;;;4.13;;
9124;SDS011;4597;48.730;9.114;2023-02-28T06:56:27;5.40;;;4.60;;
9124;SDS011;4597;48.730;9.114;2023-02-28T06:58:53;4.87;;;4.37;;
9124;SDS011;4597;48.730;9.114;2023-02-28T07:01:19;5.70;;;4.73;;
9124;SDS011;4597;48.730;9.114;2023-02-28T07:03:45;4.67;;;4.27;;
9124;SDS011;4597;48.730;9.114;2023-02-28T07:06:12;4.80;;;4.40;;
9124;SDS011;4597;48.730;9.114;2023-02-28T07:08:37;6.43;;;4.80;;
9124;SDS011;4597;48.730;9.114;2023-02-28T07:11:05;6.20;;;5.13;;
9124;SDS011;4597;48.730;9.114;2023-02-28T07:13:30;6.13;;;4.33;;
9124;SDS011;4597;48.730;9.114;2023-02-28T07:16:00;5.30;;;4.80;;
9124;SDS011;4597;48.730;9.114;2023-02-28T07:18:28;7.20;;;5.37;;
9124;SDS011;4597;48.730;9.114;2023-02-28T07:20:54;4.80;;;4.27;;
9124;SDS011;4597;48.730;9.114;2023-02-28T07:23:20;4.80;;;4.37;;
9124;SDS011;4597;48.730;9.114;2023-02-28T07:25:45;6.53;;;4.70;;
9124;SDS011;4597;48.730;9.114;2023-02-28T07:28:12;5.17;;;4.77;;
9124;SDS011;4597;48.730;9.114;2023-02-28T07:30:38;6.10;;;4.83;;
9124;SDS011;4597;48.730;9.114;2023-02-28T07:33:04;6.00;;;4.70;;
9124;SDS011;4597;48.730;9.114;2023-02-28T07:35:30;5.60;;;5.07;;
9124;SDS011;4597;48.730;9.114;2023-02-28T07:37:57;6.40;;;4.67;;
9124;SDS011;4597;48.730;9.114;2023-02-28T07:40:23;5.93;;;5.13;;
9124;SDS011;4597;48.730;9.114;2023-02-28T07:42:49;5.47;;;5.00;;
9124;SDS011;4597;48.730;9.114;2023-02-28T07:45:14;7.77;;;4.83;;
9124;SDS011;4597;48.730;9.114;2023-02-28T07:47:41;6.53;;;5.10;;
9124;SDS011;4597;48.730;9.114;2023-02-28T07:50:09;5.13;;;4.63;;
9124;SDS011;4597;48.730;9.114;2023-02-28T07:52:36;5.30;;;4.80;;
9124;SDS011;4597;48.730;9.114;2023-02-28T07:55:03;6.00;;;5.40;;
9124;SDS011;4597;48.730;9.114;2023-02-28T07:57:29;5.43;;;4.93;;
9124;SDS011;4597;48.730;9.114;2023-02-28T07:59:55;6.27;;;5.67;;
9124;SDS011;4597;48.730;9.114;2023-02-28T08:02:20;5.50;;;5.00;;
9124;SDS011;4597;48.730;9.114;2023-02-28T08:04:46;5.90;;;5.10;;
9124;SDS011;4597;48.730;9.114;2023-02-28T08:07:13;6.03;;;5.07;;
9124;SDS011;4597;48.730;9.114;2023-02-28T08:09:39;5.73;;;5.23;;
9124;SDS011;4597;48.730;9.114;2023-02-28T08:12:06;6.30;;;5.70;;
9124;SDS011;4597;48.730;9.114;2023-02-28T08:14:32;7.50;;;5.97;;
9124;SDS011;4597;48.730;9.114;2023-02-28T08:16:59;6.30;;;5.60;;
9124;SDS011;4597;48.730;9.114;2023-02-28T08:19:24;6.77;;;5.50;;
9124;SDS011;4597;48.730;9.114;2023-02-28T08:21:50;8.33;;;5.60;;
9124;SDS011;4597;48.730;9.114;2023-02-28T08:24:15;6.73;;;5.77;;
9124;SDS011;4597;48.730;9.114;2023-02-28T08:26:41;6.97;;;6.07;;
9124;SDS011;4597;48.730;9.114;2023-02-28T08:29:06;6.37;;;5.73;;
9124;SDS011;4597;48.730;9.114;2023-02-28T08:31:32;6.73;;;5.70;;
9124;SDS011;4597;48.730;9.114;2023-02-28T08:33:57;7.57;;;5.87;;
9124;SDS011;4597;48.730;9.114;2023-02-28T08:36:24;6.47;;;5.70;;
9124;SDS011;4597;48.730;9.114;2023-02-28T08:38:51;8.57;;;6.53;;
9124;SDS011;4597;48.730;9.114;2023-02-28T08:41:16;6.63;;;5.70;;
9124;SDS011;4597;48.730;9.114;2023-02-28T08:43:42;8.43;;;5.70;;
9124;SDS011;4597;48.730;9.114;2023-02-28T08:46:08;6.87;;;6.17;;
9124;SDS011;4597;48.730;9.114;2023-02-28T08:48:36;7.93;;;6.83;;
9124;SDS011;4597;48.730;9.114;2023-02-28T08:51:09;6.80;;;6.10;;
9124;SDS011;4597;48.730;9.114;2023-02-28T08:53:37;7.63;;;5.93;;
9124;SDS011;4597;48.730;9.114;2023-02-28T08:56:11;8.60;;;6.33;;
9124;SDS011;4597;48.730;9.114;2023-02-28T08:58:38;8.57;;;7.00;;
9124;SDS011;4597;48.730;9.114;2023-02-28T09:01:10;7.10;;;6.40;;
9124;SDS011;4597;48.730;9.114;2023-02-28T09:03:47;7.70;;;6.73;;
9124;SDS011;4597;48.730;9.114;2023-02-28T09:06:14;7.83;;;6.33;;
9124;SDS011;4597;48.730;9.114;2023-02-28T09:08:42;7.43;;;6.70;;
9124;SDS011;4597;48.730;9.114;2023-02-28T09:11:08;6.93;;;5.90;;
9124;SDS011;4597;48.730;9.114;2023-02-28T09:13:35;7.90;;;7.07;;
9124;SDS011;4597;48.730;9.114;2023-02-28T09:16:01;7.80;;;7.00;;
9124;SDS011;4597;48.730;9.114;2023-02-28T09:18:28;8.47;;;6.73;;
9124;SDS011;4597;48.730;9.114;2023-02-28T09:20:54;8.33;;;7.53;;
9124;SDS011;4597;48.730;9.114;2023-02-28T09:23:19;6.93;;;6.23;;
9124;SDS011;4597;48.730;9.114;2023-02-28T09:25:46;8.83;;;6.83;;
9124;SDS011;4597;48.730;9.114;2023-02-28T09:28:17;7.97;;;7.20;;
9124;SDS011;4597;48.730;9.114;2023-02-28T09:30:46;8.00;;;6.80;;
9124;SDS011;4597;48.730;9.114;2023-02-28T09:33:14;8.30;;;6.83;;
9124;SDS011;4597;48.730;9.114;2023-02-28T09:35:40;9.70;;;6.87;;
9124;SDS011;4597;48.730;9.114;2023-02-28T09:38:06;8.20;;;7.40;;
9124;SDS011;4597;48.730;9.114;2023-02-28T09:40:34;7.87;;;6.80;;
9124;SDS011;4597;48.730;9.114;2023-02-28T09:43:02;7.87;;;7.07;;
9124;SDS011;4597;48.730;9.114;2023-02-28T09:47:59;10.60;;;7.00;;
9124;SDS011;4597;48.730;9.114;2023-02-28T09:53:14;8.13;;;6.80;;
9124;SDS011;4597;48.730;9.114;2023-02-28T09:55:53;8.03;;;7.23;;
9124;SDS011;4597;48.730;9.114;2023-02-28T09:58:42;8.83;;;6.77;;
9124;SDS011;4597;48.730;9.114;2023-02-28T10:01:28;7.40;;;6.60;;
9124;SDS011;4597;48.730;9.114;2023-02-28T10:06:50;9.37;;;7.60;;
9124;SDS011;4597;48.730;9.114;2023-02-28T10:11:56;8.40;;;7.57;;
9124;SDS011;4597;48.730;9.114;2023-02-28T10:14:25;10.00;;;7.13;;
9124;SDS011;4597;48.730;9.114;2023-02-28T10:19:56;10.10;;;6.77;;
9124;SDS011;4597;48.730;9.114;2023-02-28T10:22:53;9.37;;;7.00;;
9124;SDS011;4597;48.730;9.114;2023-02-28T10:25:40;7.40;;;6.70;;
9124;SDS011;4597;48.730;9.114;2023-02-28T10:28:14;7.40;;;6.70;;
9124;SDS011;4597;48.730;9.114;2023-02-28T10:30:48;9.90;;;7.43;;
9124;SDS011;4597;48.730;9.114;2023-02-28T10:33:25;9.40;;;7.60;;
9124;SDS011;4597;48.730;9.114;2023-02-28T10:35:53;10.03;;;7.13;;
9124;SDS011;4597;48.730;9.114;2023-02-28T10:38:23;8.97;;;6.87;;
9124;SDS011;4597;48.730;9.114;2023-02-28T10:40:50;9.50;;;7.37;;
9124;SDS011;4597;48.730;9.114;2023-02-28T10:45:52;7.87;;;6.70;;
9124;SDS011;4597;48.730;9.114;2023-02-28T10:50:59;7.77;;;6.90;;
9124;SDS011;4597;48.730;9.114;2023-02-28T10:54:10;8.07;;;7.20;;
9124;SDS011;4597;48.730;9.114;2023-02-28T10:56:17;7.50;;;6.90;;
9124;SDS011;4597;48.730;9.114;2023-02-28T11:01:54;8.57;;;7.67;;
9124;SDS011;4597;48.730;9.114;2023-02-28T11:07:39;8.23;;;6.87;;
9124;SDS011;4597;48.730;9.114;2023-02-28T11:09:50;9.00;;;7.20;;
9124;SDS011;4597;48.730;9.114;2023-02-28T11:12:35;8.77;;;6.93;;
9124;SDS011;4597;48.730;9.114;2023-02-28T11:15:07;7.73;;;6.93;;
9124;SDS011;4597;48.730;9.114;2023-02-28T11:20:36;7.90;;;7.17;;
9124;SDS011;4597;48.730;9.114;2023-02-28T11:23:03;7.40;;;6.70;;
9124;SDS011;4597;48.730;9.114;2023-02-28T11:25:30;8.93;;;7.00;;
9124;SDS011;4597;48.730;9.114;2023-02-28T11:28:00;8.20;;;7.40;;
9124;SDS011;4597;48.730;9.114;2023-02-28T11:30:40;9.10;;;7.73;;
9124;SDS011;4597;48.730;9.114;2023-02-28T11:34:07;7.13;;;6.43;;
9124;SDS011;4597;48.730;9.114;2023-02-28T11:36:27;9.97;;;7.43;;
9124;SDS011;4597;48.730;9.114;2023-02-28T11:38:56;7.20;;;6.50;;
9124;SDS011;4597;48.730;9.114;2023-02-28T11:47:23;8.77;;;7.67;;
9124;SDS011;4597;48.730;9.114;2023-02-28T11:50:16;7.90;;;7.20;;
9124;SDS011;4597;48.730;9.114;2023-02-28T11:53:05;7.60;;;6.90;;
9124;SDS011;4597;48.730;9.114;2023-02-28T11:55:42;8.30;;;7.47;;
9124;SDS011;4597;48.730;9.114;2023-02-28T11:58:26;8.23;;;6.93;;
9124;SDS011;4597;48.730;9.114;2023-02-28T12:01:19;9.40;;;7.87;;
9124;SDS011;4597;48.730;9.114;2023-02-28T12:04:17;9.63;;;7.80;;
9124;SDS011;4597;48.730;9.114;2023-02-28T12:15:40;10.37;;;8.00;;
9124;SDS011;4597;48.730;9.114;2023-02-28T12:21:15;7.53;;;6.80;;
9124;SDS011;4597;48.730;9.114;2023-02-28T12:23:54;7.77;;;7.07;;
9124;SDS011;4597;48.730;9.114;2023-02-28T12:26:36;8.10;;;7.40;;
9124;SDS011;4597;48.730;9.114;2023-02-28T12:29:18;9.30;;;7.30;;
9124;SDS011;4597;48.730;9.114;2023-02-28T12:34:31;8.27;;;7.47;;
9124;SDS011;4597;48.730;9.114;2023-02-28T12:37:03;7.97;;;6.90;;
9124;SDS011;4597;48.730;9.114;2023-02-28T12:39:36;8.27;;;7.47;;
9124;SDS011;4597;48.730;9.114;2023-02-28T12:42:27;7.53;;;6.83;;
9124;SDS011;4597;48.730;9.114;2023-02-28T12:44:57;7.60;;;6.90;;
9124;SDS011;4597;48.730;9.114;2023-02-28T12:47:26;8.50;;;7.60;;
9124;SDS011;4597;48.730;9.114;2023-02-28T12:49:53;8.10;;;7.30;;
9124;SDS011;4597;48.730;9.114;2023-02-28T12:52:28;8.67;;;7.80;;
9124;SDS011;4597;48.730;9.114;2023-02-28T12:58:08;7.93;;;7.20;;
9124;SDS011;4597;48.730;9.114;2023-02-28T13:03:44;7.93;;;7.17;;
9124;SDS011;4597;48.730;9.114;2023-02-28T13:06:32;8.40;;;7.00;;
9124;SDS011;4597;48.730;9.114;2023-02-28T13:09:17;8.67;;;7.30;;
9124;SDS011;4597;48.730;9.114;2023-02-28T13:11:45;8.63;;;7.70;;
9124;SDS011;4597;48.730;9.114;2023-02-28T13:14:23;10.70;;;7.53;;
9124;SDS011;4597;48.730;9.114;2023-02-28T13:17:09;8.33;;;7.53;;
9124;SDS011;4597;48.730;9.114;2023-02-28T13:19:38;8.73;;;7.87;;
9124;SDS011;4597;48.730;9.114;2023-02-28T13:22:04;8.20;;;7.27;;
9124;SDS011;4597;48.730;9.114;2023-02-28T13:29:43;9.17;;;8.27;;
9124;SDS011;4597;48.730;9.114;2023-02-28T13:34:35;8.00;;;7.30;;
9124;SDS011;4597;48.730;9.114;2023-02-28T13:47:28;7.90;;;7.10;;
9124;SDS011;4597;48.730;9.114;2023-02-28T13:52:46;8.37;;;7.60;;
9124;SDS011;4597;48.730;9.114;2023-02-28T13:55:25;9.03;;;7.83;;
9124;SDS011;4597;48.730;9.114;2023-02-28T13:58:05;8.37;;;7.57;;
9124;SDS011;4597;48.730;9.114;2023-02-28T14:03:50;8.43;;;7.67;;
9124;SDS011;4597;48.730;9.114;2023-02-28T14:11:38;8.80;;;7.93;;
9124;SDS011;4597;48.730;9.114;2023-02-28T14:14:06;9.07;;;7.27;;
9124;SDS011;4597;48.730;9.114;2023-02-28T14:16:40;8.30;;;7.60;;
9124;SDS011;4597;48.730;9.114;2023-02-28T14:19:13;10.23;;;8.13;;
9124;SDS011;4597;48.730;9.114;2023-02-28T14:22:00;9.93;;;8.50;;
9124;SDS011;4597;48.730;9.114;2023-02-28T14:24:42;9.20;;;8.30;;
9124;SDS011;4597;48.730;9.114;2023-02-28T14:27:40;8.90;;;8.10;;
9124;SDS011;4597;48.730;9.114;2023-02-28T14:30:29;9.97;;;8.13;;
9124;SDS011;4597;48.730;9.114;2023-02-28T14:38:44;9.60;;;8.70;;
9124;SDS011;4597;48.730;9.114;2023-02-28T14:41:40;8.17;;;7.40;;
9124;SDS011;4597;48.730;9.114;2023-02-28T14:46:54;9.10;;;8.17;;
9124;SDS011;4597;48.730;9.114;2023-02-28T14:54:35;8.37;;;7.57;;
9124;SDS011;4597;48.730;9.114;2023-02-28T14:57:02;9.93;;;8.93;;
9124;SDS011;4597;48.730;9.114;2023-02-28T14:59:29;8.77;;;7.97;;
9124;SDS011;4597;48.730;9.114;2023-02-28T15:04:42;9.13;;;8.27;;
9124;SDS011;4597;48.730;9.114;2023-02-28T15:07:12;9.33;;;7.90;;
9124;SDS011;4597;48.730;9.114;2023-02-28T15:09:39;9.43;;;8.53;;
9124;SDS011;4597;48.730;9.114;2023-02-28T15:12:05;10.17;;;8.17;;
9124;SDS011;4597;48.730;9.114;2023-02-28T15:14:31;8.97;;;8.27;;
9124;SDS011;4597;48.730;9.114;2023-02-28T15:17:01;9.50;;;8.70;;
9124;SDS011;4597;48.730;9.114;2023-02-28T15:19:32;8.70;;;7.90;;
9124;SDS011;4597;48.730;9.114;2023-02-28T15:22:02;8.70;;;8.00;;
9124;SDS011;4597;48.730;9.114;2023-02-28T15:24:37;9.30;;;8.30;;
9124;SDS011;4597;48.730;9.114;2023-02-28T15:27:07;8.67;;;7.77;;
9124;SDS011;4597;48.730;9.114;2023-02-28T15:29:58;9.33;;;8.33;;
9124;SDS011;4597;48.730;9.114;2023-02-28T15:34:53;9.07;;;8.27;;
9124;SDS011;4597;48.730;9.114;2023-02-28T15:39:51;9.33;;;8.47;;
9124;SDS011;4597;48.730;9.114;2023-02-28T15:42:19;9.23;;;8.33;;
9124;SDS011;4597;48.730;9.114;2023-02-28T15:44:46;8.73;;;7.60;;
9124;SDS011;4597;48.730;9.114;2023-02-28T15:47:15;9.03;;;8.23;;
9124;SDS011;4597;48.730;9.114;2023-02-28T15:55:24;9.70;;;8.70;;
9124;SDS011;4597;48.730;9.114;2023-02-28T15:57:54;9.50;;;8.70;;
9124;SDS011;4597;48.730;9.114;2023-02-28T16:00:24;9.83;;;8.83;;
9124;SDS011;4597;48.730;9.114;2023-02-28T16:02:52;10.57;;;8.37;;
9124;SDS011;4597;48.730;9.114;2023-02-28T16:05:19;9.20;;;8.30;;
9124;SDS011;4597;48.730;9.114;2023-02-28T16:08:01;9.00;;;8.10;;
9124;SDS011;4597;48.730;9.114;2023-02-28T16:10:37;9.20;;;8.40;;
9124;SDS011;4597;48.730;9.114;2023-02-28T16:13:02;10.70;;;8.53;;
9124;SDS011;4597;48.730;9.114;2023-02-28T16:15:29;9.17;;;8.20;;
9124;SDS011;4597;48.730;9.114;2023-02-28T16:18:00;9.10;;;8.20;;
9124;SDS011;4597;48.730;9.114;2023-02-28T16:20:26;9.73;;;8.77;;
9124;SDS011;4597;48.730;9.114;2023-02-28T16:22:53;9.73;;;8.73;;
9124;SDS011;4597;48.730;9.114;2023-02-28T16:25:21;9.00;;;8.10;;
9124;SDS011;4597;48.730;9.114;2023-02-28T16:27:50;8.97;;;8.10;;
9124;SDS011;4597;48.730;9.114;2023-02-28T16:30:26;10.50;;;9.47;;
9124;SDS011;4597;48.730;9.114;2023-02-28T16:32:54;9.37;;;8.40;;
9124;SDS011;4597;48.730;9.114;2023-02-28T16:35:20;9.40;;;8.50;;
9124;SDS011;4597;48.730;9.114;2023-02-28T16:37:46;10.00;;;8.57;;
9124;SDS011;4597;48.730;9.114;2023-02-28T16:40:15;8.97;;;8.17;;
9124;SDS011;4597;48.730;9.114;2023-02-28T16:42:46;9.23;;;8.33;;
9124;SDS011;4597;48.730;9.114;2023-02-28T16:45:16;10.03;;;9.03;;
9124;SDS011;4597;48.730;9.114;2023-02-28T16:47:44;9.23;;;8.30;;
9124;SDS011;4597;48.730;9.114;2023-02-28T16:50:17;9.73;;;8.77;;
9124;SDS011;4597;48.730;9.114;2023-02-28T16:52:47;9.17;;;8.27;;
9124;SDS011;4597;48.730;9.114;2023-02-28T16:55:14;9.37;;;8.47;;
9124;SDS011;4597;48.730;9.114;2023-02-28T16:57:40;9.57;;;8.57;;
9124;SDS011;4597;48.730;9.114;2023-02-28T17:00:07;10.63;;;9.50;;
9124;SDS011;4597;48.730;9.114;2023-02-28T17:02:37;9.27;;;8.37;;
9124;SDS011;4597;48.730;9.114;2023-02-28T17:05:03;9.13;;;8.23;;
9124;SDS011;4597;48.730;9.114;2023-02-28T17:07:29;9.13;;;8.20;;
9124;SDS011;4597;48.730;9.114;2023-02-28T17:09:54;10.00;;;8.97;;
9124;SDS011;4597;48.730;9.114;2023-02-28T17:12:20;9.30;;;8.30;;
9124;SDS011;4597;48.730;9.114;2023-02-28T17:14:45;9.70;;;8.60;;
9124;SDS011;4597;48.730;9.114;2023-02-28T17:17:21;10.50;;;8.33;;
9124;SDS011;4597;48.730;9.114;2023-02-28T17:19:47;9.30;;;8.30;;
9124;SDS011;4597;48.730;9.114;2023-02-28T17:22:13;9.80;;;8.33;;
9124;SDS011;4597;48.730;9.114;2023-02-28T17:24:38;9.73;;;8.70;;
9124;SDS011;4597;48.730;9.114;2023-02-28T17:27:04;11.07;;;9.10;;
9124;SDS011;4597;48.730;9.114;2023-02-28T17:29:30;10.57;;;9.20;;
9124;SDS011;4597;48.730;9.114;2023-02-28T17:31:55;10.13;;;9.13;;
9124;SDS011;4597;48.730;9.114;2023-02-28T17:34:21;10.30;;;9.17;;
9124;SDS011;4597;48.730;9.114;2023-02-28T17:36:47;10.10;;;9.00;;
9124;SDS011;4597;48.730;9.114;2023-02-28T17:39:15;11.23;;;10.07;;
9124;SDS011;4597;48.730;9.114;2023-02-28T17:41:48;13.67;;;11.40;;
9124;SDS011;4597;48.730;9.114;2023-02-28T17:44:15;12.10;;;10.80;;
9124;SDS011;4597;48.730;9.114;2023-02-28T17:46:40;11.40;;;10.33;;
9124;SDS011;4597;48.730;9.114;2023-02-28T17:49:08;12.47;;;10.77;;
9124;SDS011;4597;48.730;9.114;2023-02-28T17:51:34;12.23;;;10.40;;
9124;SDS011;4597;48.730;9.114;2023-02-28T17:53:59;11.47;;;10.33;;